26PN weather

Public forecast

Using degrees Fahrenheit for public forecast. Weather courtesy of forecast.io.

Closest aviation weather report (METAR) to Leeds & Northrup Co. Heliport

Closest report is Wings Field, 4.8 nm (8.9 km) S. Retrieved 2020/08/14 02:35 UTC (0 seconds ago):

KLOM 140235Z AUTO 00000KT 2 1/2SM BR CLR 22/21 A3009 RMK AO2 T02160215

Closest aviation forecast (TAF) to Leeds & Northrup Co. Heliport

Closest forecast is Northeast Philadelphia Airport, 14.7 nm (27.3 km) ESE. Retrieved 2020-08-14 00:22 UTC (2 hours ago):

TAF KPNE 132320Z 1400/1424 05005KT 4SM SHRA BR BKN025 OVC040 FM140300 VRB03KT 5SM BR SCT020 FM140600 VRB02KT 4SM BR SCT010 TEMPO 1408/1412 2SM BR OVC010 FM141300 06008KT P6SM BKN025 FM141600 07008KT P6SM SCT025 BKN080